createdAt,value
2022-07-27T00:00:46.453Z,2.10
2022-07-27T00:03:12.922Z,2.15
2022-07-27T00:05:39.319Z,2.10
2022-07-27T00:08:05.721Z,2.03
2022-07-27T00:10:32.124Z,2.03
2022-07-27T00:12:58.486Z,2.20
2022-07-27T00:15:24.799Z,1.90
2022-07-27T00:17:51.104Z,2.00
2022-07-27T00:20:17.826Z,2.05
2022-07-27T00:22:44.257Z,1.85
2022-07-27T00:25:10.627Z,2.35
2022-07-27T00:27:39.606Z,1.83
2022-07-27T00:30:06.013Z,2.10
2022-07-27T00:32:32.605Z,1.90
2022-07-27T00:34:58.991Z,1.98
2022-07-27T00:37:25.603Z,2.30
2022-07-27T00:39:52.393Z,1.85
2022-07-27T00:42:18.744Z,2.00
2022-07-27T00:44:45.186Z,1.95
2022-07-27T00:47:11.652Z,1.92
2022-07-27T00:49:38.165Z,2.20
2022-07-27T00:52:04.716Z,1.83
2022-07-27T00:54:31.148Z,1.90
2022-07-27T00:56:57.659Z,2.15
2022-07-27T00:59:24.191Z,2.30
2022-07-27T01:01:50.600Z,2.20
2022-07-27T01:04:21.800Z,2.10
2022-07-27T01:06:48.361Z,1.90
2022-07-27T01:09:18.358Z,2.05
2022-07-27T01:11:44.797Z,1.98
2022-07-27T01:14:11.354Z,1.75
2022-07-27T01:16:37.981Z,2.17
2022-07-27T01:19:04.400Z,1.95
2022-07-27T01:21:34.180Z,1.83
2022-07-27T01:24:00.785Z,2.45
2022-07-27T01:26:27.175Z,1.90
2022-07-27T01:28:53.659Z,1.65
2022-07-27T01:31:20.137Z,2.15
2022-07-27T01:33:46.683Z,2.10
2022-07-27T01:36:13.050Z,1.98
2022-07-27T01:38:39.398Z,2.05
2022-07-27T01:41:05.795Z,1.90
2022-07-27T01:43:35.740Z,1.90
2022-07-27T01:46:02.599Z,1.92
2022-07-27T01:48:29.104Z,2.00
2022-07-27T01:50:55.657Z,2.42
2022-07-27T01:53:22.187Z,1.83
2022-07-27T01:55:48.544Z,1.90
2022-07-27T01:58:22.922Z,1.90
2022-07-27T02:00:49.340Z,1.60
2022-07-27T02:03:15.868Z,2.20
2022-07-27T02:05:42.375Z,2.05
2022-07-27T02:08:11.607Z,2.07
2022-07-27T02:10:38.106Z,2.15
2022-07-27T02:13:22.124Z,1.95
2022-07-27T02:15:49.515Z,1.90
2022-07-27T02:18:32.758Z,1.73
2022-07-27T02:21:02.952Z,1.90
2022-07-27T02:23:29.294Z,1.90
2022-07-27T02:25:55.910Z,1.85
2022-07-27T02:28:22.294Z,2.00
2022-07-27T02:30:48.672Z,1.98
2022-07-27T02:33:15.308Z,1.88
2022-07-27T02:35:42.314Z,2.08
2022-07-27T02:38:08.983Z,2.05
2022-07-27T02:40:35.496Z,1.95
2022-07-27T02:43:01.825Z,1.83
2022-07-27T02:45:28.165Z,1.80
2022-07-27T02:47:54.546Z,2.03
2022-07-27T02:50:21.377Z,1.90
2022-07-27T02:52:47.943Z,1.90
2022-07-27T02:55:14.575Z,2.08
2022-07-27T02:57:41.175Z,1.50
2022-07-27T03:00:17.630Z,2.00
2022-07-27T03:02:52.011Z,1.90
2022-07-27T03:05:18.420Z,2.28
2022-07-27T03:07:46.639Z,1.75
2022-07-27T03:10:15.704Z,1.70
2022-07-27T03:12:51.933Z,2.05
2022-07-27T03:15:18.394Z,1.65
2022-07-27T03:17:46.114Z,1.85
2022-07-27T03:20:13.970Z,1.65
2022-07-27T03:22:40.293Z,1.70
2022-07-27T03:25:06.792Z,1.98
2022-07-27T03:27:33.215Z,1.63
2022-07-27T03:29:59.600Z,1.77
2022-07-27T03:32:26.021Z,1.90
2022-07-27T03:34:52.602Z,2.13
2022-07-27T03:37:19.154Z,1.80
2022-07-27T03:39:45.584Z,1.67
2022-07-27T03:42:12.378Z,2.08
2022-07-27T03:44:38.799Z,1.80
2022-07-27T03:47:05.451Z,1.80
2022-07-27T03:49:31.855Z,1.63
2022-07-27T03:51:58.338Z,1.65
2022-07-27T03:54:24.956Z,1.77
2022-07-27T03:56:51.645Z,1.90
2022-07-27T03:59:18.447Z,2.10
2022-07-27T04:01:45.117Z,2.17
2022-07-27T04:04:11.819Z,1.85
2022-07-27T04:06:38.173Z,2.08
2022-07-27T04:09:08.811Z,1.90
2022-07-27T04:11:35.723Z,1.88
2022-07-27T04:14:04.564Z,1.60
2022-07-27T04:16:35.914Z,1.90
2022-07-27T04:19:12.997Z,2.13
2022-07-27T04:21:44.378Z,1.60
2022-07-27T04:24:18.476Z,1.67
2022-07-27T04:26:44.999Z,1.85
2022-07-27T04:29:11.855Z,2.42
2022-07-27T04:31:39.515Z,2.22
2022-07-27T04:34:05.918Z,2.28
2022-07-27T04:36:32.342Z,2.22
2022-07-27T04:38:58.762Z,1.83
2022-07-27T04:41:30.192Z,2.60
2022-07-27T04:43:57.047Z,2.95
2022-07-27T04:46:25.442Z,2.22
2022-07-27T04:48:51.948Z,2.10
2022-07-27T04:51:18.588Z,2.40
2022-07-27T04:53:52.339Z,2.20
2022-07-27T04:56:24.899Z,2.40
2022-07-27T04:58:51.362Z,1.73
2022-07-27T05:01:18.014Z,2.00
2022-07-27T05:03:44.754Z,1.90
2022-07-27T05:06:11.315Z,2.08
2022-07-27T05:08:37.787Z,1.80
2022-07-27T05:11:04.284Z,2.00
2022-07-27T05:13:40.515Z,2.25
2022-07-27T05:16:06.864Z,2.10
2022-07-27T05:18:33.236Z,2.00
2022-07-27T05:20:59.937Z,2.15
2022-07-27T05:23:36.106Z,2.03
2022-07-27T05:26:02.449Z,2.33
2022-07-27T05:28:28.863Z,3.92
2022-07-27T05:30:55.705Z,8.07
2022-07-27T05:33:22.102Z,11.68
2022-07-27T05:35:48.481Z,16.05
2022-07-27T05:38:14.973Z,15.35
2022-07-27T05:40:41.502Z,17.25
2022-07-27T05:43:08.414Z,15.38
2022-07-27T05:45:34.891Z,14.77
2022-07-27T05:48:01.522Z,12.38
2022-07-27T05:50:27.900Z,10.38
2022-07-27T05:52:54.300Z,9.65
2022-07-27T05:55:21.107Z,8.73
2022-07-27T05:57:47.680Z,6.88
2022-07-27T06:00:14.082Z,5.65
2022-07-27T06:02:40.597Z,6.47
2022-07-27T06:05:09.417Z,6.13
2022-07-27T06:07:40.336Z,6.70
2022-07-27T06:10:06.730Z,4.45
2022-07-27T06:12:35.249Z,5.03
2022-07-27T06:15:01.929Z,5.15
2022-07-27T06:17:28.571Z,4.97
2022-07-27T06:19:55.091Z,4.70
2022-07-27T06:22:21.799Z,4.07
2022-07-27T06:24:58.056Z,4.55
2022-07-27T06:27:28.577Z,4.47
2022-07-27T06:29:55.941Z,4.90
2022-07-27T06:32:22.508Z,4.13
2022-07-27T06:34:49.746Z,4.40
2022-07-27T06:37:16.867Z,4.82
2022-07-27T06:39:45.117Z,3.65
2022-07-27T06:42:21.334Z,4.25
2022-07-27T06:44:47.611Z,3.80
2022-07-27T06:47:13.989Z,3.17
2022-07-27T06:49:40.578Z,4.07
2022-07-27T06:52:07.346Z,3.80
2022-07-27T06:54:34.433Z,3.90
2022-07-27T06:57:00.856Z,4.30
2022-07-27T06:59:27.315Z,3.38
2022-07-27T07:02:19.913Z,4.30
2022-07-27T07:04:46.218Z,4.32
2022-07-27T07:07:12.647Z,3.85
2022-07-27T07:09:38.992Z,3.88
2022-07-27T07:12:05.439Z,3.28
2022-07-27T07:14:31.940Z,4.03
2022-07-27T07:16:58.578Z,3.80
2022-07-27T07:19:24.958Z,3.75
2022-07-27T07:21:51.358Z,3.72
2022-07-27T07:24:17.872Z,3.80
2022-07-27T07:26:54.129Z,3.67
2022-07-27T07:29:26.142Z,3.63
2022-07-27T07:31:52.667Z,3.30
2022-07-27T07:34:18.996Z,3.63
2022-07-27T07:36:45.607Z,3.70
2022-07-27T07:39:12.286Z,2.72
2022-07-27T07:41:39.228Z,3.40
2022-07-27T07:44:05.917Z,3.20
2022-07-27T07:46:32.539Z,3.20
2022-07-27T07:48:59.317Z,2.97
2022-07-27T07:51:25.959Z,3.25
2022-07-27T07:53:52.492Z,2.70
2022-07-27T07:56:18.877Z,3.33
2022-07-27T07:58:45.290Z,3.20
2022-07-27T08:01:11.629Z,3.58
2022-07-27T08:03:37.957Z,2.60
2022-07-27T08:06:04.313Z,3.00
2022-07-27T08:08:30.691Z,3.67
2022-07-27T08:10:57.123Z,3.30
2022-07-27T08:13:23.625Z,3.35
2022-07-27T08:15:50.469Z,3.15
2022-07-27T08:18:16.786Z,3.33
2022-07-27T08:20:43.567Z,3.05
2022-07-27T08:23:09.905Z,3.03
2022-07-27T08:25:39.284Z,3.45
2022-07-27T08:28:12.747Z,2.40
2022-07-27T08:30:39.608Z,2.72
2022-07-27T08:33:06.182Z,2.58
2022-07-27T08:35:32.555Z,3.10
2022-07-27T08:37:59.154Z,2.75
2022-07-27T08:40:43.404Z,2.78
2022-07-27T08:43:11.008Z,2.90
2022-07-27T08:45:37.466Z,2.90
2022-07-27T08:48:04.082Z,2.97
2022-07-27T08:50:30.802Z,3.00
2022-07-27T08:52:57.602Z,3.08
2022-07-27T08:55:23.960Z,2.95
2022-07-27T08:57:50.305Z,3.10
2022-07-27T09:00:16.869Z,2.90
2022-07-27T09:02:43.461Z,2.53
2022-07-27T09:05:09.962Z,3.00
2022-07-27T09:07:42.810Z,2.50
2022-07-27T09:10:09.200Z,2.72
2022-07-27T09:12:35.712Z,2.95
2022-07-27T09:15:02.085Z,3.05
2022-07-27T09:17:48.562Z,2.67
2022-07-27T09:20:18.259Z,2.72
2022-07-27T09:22:45.349Z,2.65
2022-07-27T09:25:11.780Z,2.60
2022-07-27T09:27:38.569Z,2.38
2022-07-27T09:30:05.034Z,2.65
2022-07-27T09:32:31.440Z,3.08
2022-07-27T09:34:57.852Z,2.20
2022-07-27T09:37:24.370Z,2.90
2022-07-27T09:39:55.880Z,2.40
2022-07-27T09:43:03.554Z,2.78
2022-07-27T09:45:08.639Z,2.70
2022-07-27T09:47:35.980Z,2.42
2022-07-27T09:50:04.149Z,2.22
2022-07-27T09:52:30.562Z,2.40
2022-07-27T09:54:57.024Z,2.30
2022-07-27T09:57:23.719Z,2.58
2022-07-27T09:59:50.057Z,2.38
2022-07-27T10:02:16.584Z,2.03
2022-07-27T10:04:43.131Z,2.45
2022-07-27T10:07:13.113Z,2.45
2022-07-27T10:09:39.935Z,2.63
2022-07-27T10:12:06.595Z,2.47
2022-07-27T10:14:33.063Z,2.65
2022-07-27T10:16:59.628Z,2.10
2022-07-27T10:19:26.186Z,2.38
2022-07-27T10:21:52.681Z,2.17
2022-07-27T10:24:19.312Z,2.25
2022-07-27T10:26:45.900Z,2.45
2022-07-27T10:29:14.352Z,2.10
2022-07-27T10:31:41.109Z,2.10
2022-07-27T10:34:07.620Z,2.50
2022-07-27T10:36:34.748Z,2.47
2022-07-27T10:39:01.163Z,2.45
2022-07-27T10:41:27.557Z,2.10
2022-07-27T10:43:54.035Z,2.53
2022-07-27T10:46:27.782Z,1.90
2022-07-27T10:48:54.184Z,2.30
2022-07-27T10:51:21.240Z,2.20
2022-07-27T10:56:33.947Z,2.53
2022-07-27T10:59:10.170Z,2.28
2022-07-27T11:01:37.213Z,2.42
2022-07-27T11:04:03.575Z,2.17
2022-07-27T11:06:44.992Z,2.20
2022-07-27T11:10:02.485Z,2.33
2022-07-27T11:12:00.911Z,2.60
2022-07-27T11:14:31.991Z,2.42
2022-07-27T11:17:17.232Z,2.40
2022-07-27T11:19:44.855Z,1.85
2022-07-27T11:22:28.274Z,2.10
2022-07-27T11:24:55.621Z,2.35
2022-07-27T11:27:30.398Z,2.08
2022-07-27T11:30:06.663Z,2.25
2022-07-27T11:32:33.031Z,2.40
2022-07-27T11:34:59.685Z,2.00
2022-07-27T11:37:26.201Z,1.90
2022-07-27T11:40:04.963Z,2.17
2022-07-27T11:42:39.291Z,1.85
2022-07-27T11:45:05.710Z,2.05
2022-07-27T11:47:32.160Z,2.30
2022-07-27T11:49:58.604Z,2.38
2022-07-27T11:52:25.251Z,1.90
2022-07-27T11:55:01.330Z,2.20
2022-07-27T11:57:30.263Z,2.40
2022-07-27T11:59:56.698Z,2.20
2022-07-27T12:02:23.221Z,2.10
2022-07-27T12:04:49.727Z,2.05
2022-07-27T12:07:17.364Z,2.03
2022-07-27T12:09:43.950Z,2.10
2022-07-27T12:12:10.533Z,2.17
2022-07-27T12:14:36.940Z,2.42
2022-07-27T12:17:03.627Z,1.98
2022-07-27T12:19:30.087Z,2.47
2022-07-27T12:21:56.545Z,2.42
2022-07-27T12:24:23.121Z,2.00
2022-07-27T12:27:04.430Z,2.15
2022-07-27T12:29:32.652Z,2.25
2022-07-27T12:31:59.031Z,2.05
2022-07-27T12:34:25.583Z,1.98
2022-07-27T12:36:52.054Z,2.30
2022-07-27T12:39:18.450Z,2.40
2022-07-27T12:41:44.811Z,2.30
2022-07-27T12:44:11.150Z,2.00
2022-07-27T12:46:37.728Z,1.85
2022-07-27T12:49:04.267Z,2.08
2022-07-27T12:51:30.895Z,1.98
2022-07-27T12:53:57.235Z,2.03
2022-07-27T12:56:26.969Z,1.92
2022-07-27T12:58:54.229Z,1.75
2022-07-27T13:01:20.870Z,2.03
2022-07-27T13:03:47.319Z,2.00
2022-07-27T13:06:13.728Z,2.15
2022-07-27T13:08:40.213Z,1.92
2022-07-27T13:11:06.867Z,2.10
2022-07-27T13:13:33.338Z,2.10
2022-07-27T13:15:59.819Z,2.10
2022-07-27T13:18:26.302Z,1.88
2022-07-27T13:20:52.744Z,2.10
2022-07-27T13:23:19.163Z,2.30
2022-07-27T13:25:45.798Z,2.28
2022-07-27T13:28:12.408Z,1.90
2022-07-27T13:30:38.860Z,2.20
2022-07-27T13:33:05.373Z,2.00
2022-07-27T13:35:31.800Z,1.90
2022-07-27T13:37:58.397Z,2.17
2022-07-27T13:40:24.898Z,1.85
2022-07-27T13:42:51.484Z,1.98
2022-07-27T13:45:17.932Z,1.83
2022-07-27T13:47:44.446Z,2.00
2022-07-27T13:50:17.870Z,2.00
2022-07-27T13:52:45.978Z,1.80
2022-07-27T13:55:12.954Z,1.92
2022-07-27T13:57:39.303Z,1.90
2022-07-27T14:00:10.129Z,1.75
2022-07-27T14:02:36.499Z,1.65
2022-07-27T14:05:05.822Z,1.60
2022-07-27T14:07:32.786Z,1.70
2022-07-27T14:09:59.146Z,1.92
2022-07-27T14:12:25.831Z,1.83
2022-07-27T14:15:02.069Z,1.90
2022-07-27T14:17:28.418Z,2.00
2022-07-27T14:19:54.907Z,2.10
2022-07-27T14:22:22.371Z,1.85
2022-07-27T14:24:48.725Z,1.95
2022-07-27T14:27:15.358Z,1.88
2022-07-27T14:29:41.715Z,1.90
2022-07-27T14:32:08.259Z,2.00
2022-07-27T14:34:35.359Z,2.15
2022-07-27T14:37:01.794Z,1.90
2022-07-27T14:39:31.030Z,2.17
2022-07-27T14:41:57.592Z,1.95
2022-07-27T14:44:28.341Z,2.03
2022-07-27T14:46:54.857Z,1.83
2022-07-27T14:49:22.799Z,1.88
2022-07-27T14:51:49.502Z,2.05
2022-07-27T14:54:15.934Z,1.98
2022-07-27T14:56:42.279Z,2.10
2022-07-27T14:59:08.743Z,2.30
2022-07-27T15:01:35.254Z,2.40
2022-07-27T15:04:01.754Z,2.10
2022-07-27T15:06:28.123Z,2.17
2022-07-27T15:08:55.472Z,2.15
2022-07-27T15:11:21.834Z,2.63
2022-07-27T15:13:48.226Z,2.22
2022-07-27T15:16:14.675Z,2.20
2022-07-27T15:18:41.471Z,2.15
2022-07-27T15:21:13.094Z,2.15
2022-07-27T15:23:46.166Z,2.08
2022-07-27T15:26:12.650Z,2.15
2022-07-27T15:28:39.119Z,2.25
2022-07-27T15:31:05.892Z,2.63
2022-07-27T15:33:32.335Z,1.80
2022-07-27T15:35:59.014Z,2.22
2022-07-27T15:38:25.487Z,2.10
2022-07-27T15:40:51.883Z,2.33
2022-07-27T15:43:18.268Z,2.10
2022-07-27T15:45:44.682Z,1.80
2022-07-27T15:48:11.103Z,1.80
2022-07-27T15:50:37.479Z,2.15
2022-07-27T15:53:03.906Z,2.05
2022-07-27T15:55:32.999Z,1.90
2022-07-27T15:57:59.425Z,1.90
2022-07-27T16:00:26.240Z,1.90
2022-07-27T16:02:55.208Z,2.05
2022-07-27T16:05:23.330Z,1.95
2022-07-27T16:07:51.078Z,2.00
2022-07-27T16:10:17.611Z,1.85
2022-07-27T16:12:44.174Z,2.10
2022-07-27T16:15:10.609Z,2.05
2022-07-27T16:17:37.235Z,2.05
2022-07-27T16:20:04.524Z,2.03
2022-07-27T16:22:31.273Z,2.03
2022-07-27T16:24:57.799Z,1.77
2022-07-27T16:27:24.262Z,1.80
2022-07-27T16:29:50.626Z,2.20
2022-07-27T16:32:17.127Z,2.10
2022-07-27T16:34:43.506Z,1.85
2022-07-27T16:37:09.891Z,2.10
2022-07-27T16:39:36.256Z,2.10
2022-07-27T16:42:02.832Z,2.00
2022-07-27T16:44:29.458Z,1.85
2022-07-27T16:46:56.042Z,1.98
2022-07-27T16:49:22.512Z,1.90
2022-07-27T16:51:59.830Z,1.80
2022-07-27T16:54:26.578Z,1.98
2022-07-27T16:56:53.239Z,1.70
2022-07-27T16:59:19.795Z,2.03
2022-07-27T17:01:46.185Z,2.10
2022-07-27T17:04:12.700Z,2.05
2022-07-27T17:06:39.178Z,2.00
2022-07-27T17:09:05.467Z,1.67
2022-07-27T17:11:32.239Z,1.95
2022-07-27T17:14:03.814Z,1.60
2022-07-27T17:16:30.290Z,1.95
2022-07-27T17:18:56.673Z,1.77
2022-07-27T17:21:25.015Z,1.70
2022-07-27T17:23:51.353Z,2.03
2022-07-27T17:26:17.829Z,1.90
2022-07-27T17:28:44.173Z,1.58
2022-07-27T17:31:11.773Z,1.75
2022-07-27T17:33:38.156Z,1.67
2022-07-27T17:36:04.655Z,1.90
2022-07-27T17:38:31.119Z,1.70
2022-07-27T17:40:57.674Z,1.90
2022-07-27T17:43:24.350Z,1.73
2022-07-27T17:45:50.827Z,1.80
2022-07-27T17:48:17.239Z,1.60
2022-07-27T17:50:43.625Z,1.55
2022-07-27T17:53:10.075Z,1.60
2022-07-27T17:55:37.952Z,1.83
2022-07-27T17:58:04.543Z,1.80
2022-07-27T18:00:30.867Z,1.73
2022-07-27T18:02:58.241Z,1.83
2022-07-27T18:05:25.063Z,1.88
2022-07-27T18:07:51.532Z,2.25
2022-07-27T18:10:17.825Z,1.70
2022-07-27T18:12:44.181Z,2.00
2022-07-27T18:15:10.622Z,1.90
2022-07-27T18:17:36.907Z,1.58
2022-07-27T18:20:03.307Z,1.70
2022-07-27T18:22:29.742Z,2.00
2022-07-27T18:24:56.186Z,1.85
2022-07-27T18:27:22.499Z,1.90
2022-07-27T18:29:49.061Z,2.10
2022-07-27T18:32:15.463Z,2.10
2022-07-27T18:34:44.654Z,1.80
2022-07-27T18:37:14.202Z,1.83
2022-07-27T18:39:40.501Z,1.70
2022-07-27T18:42:07.140Z,1.52
2022-07-27T18:44:38.395Z,1.95
2022-07-27T18:47:05.759Z,1.75
2022-07-27T18:49:32.244Z,1.90
2022-07-27T18:51:58.736Z,1.75
2022-07-27T18:54:25.127Z,1.80
2022-07-27T18:56:51.488Z,2.10
2022-07-27T18:59:17.802Z,1.80
2022-07-27T19:01:44.279Z,1.77
2022-07-27T19:04:10.663Z,1.83
2022-07-27T19:06:37.011Z,1.70
2022-07-27T19:09:03.460Z,1.58
2022-07-27T19:11:29.869Z,1.60
2022-07-27T19:13:56.248Z,2.05
2022-07-27T19:16:22.729Z,1.65
2022-07-27T19:18:49.129Z,1.80
2022-07-27T19:21:15.525Z,2.00
2022-07-27T19:23:41.935Z,1.80
2022-07-27T19:26:08.337Z,1.80
2022-07-27T19:28:34.678Z,1.83
2022-07-27T19:31:01.173Z,1.60
2022-07-27T19:33:27.782Z,1.88
2022-07-27T19:35:54.318Z,1.70
2022-07-27T19:38:20.656Z,1.63
2022-07-27T19:40:47.094Z,1.83
2022-07-27T19:43:13.591Z,1.60
2022-07-27T19:45:40.003Z,1.50
2022-07-27T19:48:06.395Z,1.85
2022-07-27T19:50:32.794Z,1.63
2022-07-27T19:52:59.355Z,1.50
2022-07-27T19:55:25.724Z,1.75
2022-07-27T19:57:52.024Z,1.77
2022-07-27T20:00:18.586Z,1.48
2022-07-27T20:02:45.056Z,1.50
2022-07-27T20:05:11.759Z,1.60
2022-07-27T20:07:38.046Z,1.45
2022-07-27T20:10:04.420Z,2.00
2022-07-27T20:12:31.040Z,1.55
2022-07-27T20:14:57.554Z,1.83
2022-07-27T20:17:23.908Z,1.70
2022-07-27T20:19:50.245Z,1.50
2022-07-27T20:22:16.576Z,1.50
2022-07-27T20:24:45.325Z,1.75
2022-07-27T20:27:11.602Z,1.80
2022-07-27T20:29:38.536Z,1.55
2022-07-27T20:32:04.885Z,1.85
2022-07-27T20:34:31.294Z,1.70
2022-07-27T20:36:57.877Z,1.70
2022-07-27T20:39:24.753Z,1.80
2022-07-27T20:41:51.693Z,2.20
2022-07-27T20:44:18.018Z,1.92
2022-07-27T20:46:44.407Z,2.08
2022-07-27T20:49:11.175Z,2.00
2022-07-27T20:51:37.829Z,2.00
2022-07-27T20:54:04.555Z,2.00
2022-07-27T20:56:30.904Z,2.63
2022-07-27T20:58:57.305Z,1.75
2022-07-27T21:01:23.961Z,1.83
2022-07-27T21:03:50.396Z,2.00
2022-07-27T21:06:16.695Z,2.17
2022-07-27T21:08:46.639Z,2.20
2022-07-27T21:13:39.765Z,1.80
2022-07-27T21:16:06.313Z,2.22
2022-07-27T21:18:32.693Z,2.20
2022-07-27T21:20:59.051Z,2.22
2022-07-27T21:23:25.354Z,2.60
2022-07-27T21:25:51.735Z,2.63
2022-07-27T21:28:23.633Z,2.40
2022-07-27T21:30:51.346Z,2.00
2022-07-27T21:33:17.864Z,2.33
2022-07-27T21:35:44.171Z,2.38
2022-07-27T21:38:10.517Z,2.72
2022-07-27T21:40:36.919Z,2.33
2022-07-27T21:43:03.222Z,2.28
2022-07-27T21:45:29.614Z,2.20
2022-07-27T21:47:56.159Z,1.95
2022-07-27T21:50:23.923Z,2.33
2022-07-27T21:52:51.382Z,2.13
2022-07-27T21:55:18.230Z,2.28
2022-07-27T21:57:49.497Z,2.08
2022-07-27T22:00:15.884Z,2.30
2022-07-27T22:02:43.395Z,2.10
2022-07-27T22:05:09.774Z,2.10
2022-07-27T22:07:36.123Z,2.00
2022-07-27T22:10:02.395Z,2.10
2022-07-27T22:12:28.725Z,1.90
2022-07-27T22:14:55.154Z,2.38
2022-07-27T22:17:21.594Z,2.30
2022-07-27T22:19:47.898Z,2.40
2022-07-27T22:22:14.269Z,2.30
2022-07-27T22:24:40.692Z,2.20
2022-07-27T22:27:06.977Z,1.90
2022-07-27T22:29:33.896Z,2.15
2022-07-27T22:32:01.163Z,1.98
2022-07-27T22:34:27.830Z,2.00
2022-07-27T22:36:54.270Z,2.42
2022-07-27T22:39:20.626Z,2.25
2022-07-27T22:41:47.138Z,2.10
2022-07-27T22:44:13.988Z,2.28
2022-07-27T22:46:42.279Z,2.10
2022-07-27T22:49:08.692Z,2.10
2022-07-27T22:51:49.609Z,2.20
2022-07-27T22:54:19.094Z,2.40
2022-07-27T22:56:45.466Z,2.30
2022-07-27T22:59:11.754Z,2.58
2022-07-27T23:01:46.647Z,2.10
2022-07-27T23:04:23.902Z,2.30
2022-07-27T23:06:50.334Z,2.63
2022-07-27T23:09:18.690Z,3.13
2022-07-27T23:11:45.106Z,2.33
2022-07-27T23:14:11.904Z,2.90
2022-07-27T23:16:38.528Z,2.15
2022-07-27T23:19:04.822Z,2.10
2022-07-27T23:21:31.374Z,2.20
2022-07-27T23:23:57.755Z,1.80
2022-07-27T23:26:25.786Z,1.88
2022-07-27T23:28:52.654Z,2.15
2022-07-27T23:31:19.289Z,2.33
2022-07-27T23:33:45.822Z,1.70
2022-07-27T23:36:12.139Z,2.00
2022-07-27T23:38:38.495Z,2.08
2022-07-27T23:41:04.821Z,2.10
2022-07-27T23:43:31.163Z,2.00
2022-07-27T23:45:57.542Z,2.33
2022-07-27T23:48:25.024Z,1.95
2022-07-27T23:50:51.819Z,1.92
2022-07-27T23:53:18.171Z,2.08
2022-07-27T23:55:44.553Z,2.22
2022-07-27T23:58:11.017Z,2.00
